Time;durP1;ratioP1;P1;durP2;ratioP2;P2;SDS_P1;SDS_P2;PMS_P1;PMS_P2;Temp;Humidity;BMP_temperature;BMP_pressure;BME280_temperature;BME280_humidity;BME280_pressure;Samples;Min_cycle;Max_cycle;Signal;HPM_P1;HPM_P2
2022/11/09 00:01:38;;;;;;;;;4.25;4.25;;;;;14.28;75.48;99899.66;5076826;27;45430;-73
2022/11/09 00:04:04;;;;;;;;;5.00;5.00;;;;;14.24;75.35;99905.28;5076961;27;45521;-72
2022/11/09 00:06:31;;;;;;;;;6.75;6.75;;;;;14.24;75.50;99897.34;5076729;27;45719;-73
2022/11/09 00:08:56;;;;;;;;;5.00;5.00;;;;;14.21;75.52;99905.50;5075501;28;45417;-75
2022/11/09 00:11:22;;;;;;;;;5.00;5.00;;;;;14.22;75.57;99908.00;5076836;27;45335;-73
2022/11/09 00:13:47;;;;;;;;;6.00;5.25;;;;;14.15;75.75;99901.44;5076942;27;45548;-73
2022/11/09 00:16:17;;;;;;;;;5.75;5.75;;;;;14.20;75.75;99917.03;5076449;28;45630;-72
2022/11/09 00:18:46;;;;;;;;;6.00;5.50;;;;;14.19;75.75;99917.97;5076697;27;45210;-73
2022/11/09 00:21:14;;;;;;;;;4.00;4.00;;;;;14.17;75.88;99934.78;5076599;27;45323;-73
2022/11/09 00:23:39;;;;;;;;;5.75;5.75;;;;;14.15;77.33;99938.47;5076632;27;45480;-73
2022/11/09 00:26:07;;;;;;;;;5.50;5.50;;;;;14.12;78.53;99922.81;5075771;27;51594;-74
2022/11/09 00:28:33;;;;;;;;;6.25;6.25;;;;;14.05;79.19;99934.72;5076044;28;45210;-73
2022/11/09 00:31:00;;;;;;;;;5.75;5.25;;;;;13.98;79.67;99934.28;5076278;27;45186;-72
2022/11/09 00:33:25;;;;;;;;;4.50;4.50;;;;;13.89;80.20;99917.22;5076309;27;45313;-72
2022/11/09 00:35:51;;;;;;;;;5.00;4.25;;;;;13.84;80.47;99903.47;5075532;27;45432;-73
2022/11/09 00:38:16;;;;;;;;;4.00;4.00;;;;;13.78;80.41;99867.69;5076462;27;45421;-73
2022/11/09 00:40:41;;;;;;;;;4.25;4.25;;;;;13.83;80.56;99873.53;5076331;27;45239;-73
2022/11/09 00:43:07;;;;;;;;;6.00;6.00;;;;;13.83;80.79;99870.91;5076387;27;45688;-73
2022/11/09 00:45:32;;;;;;;;;4.00;4.00;;;;;13.83;80.93;99875.31;5075626;27;45376;-75
2022/11/09 00:47:57;;;;;;;;;3.25;3.25;;;;;13.79;80.87;99879.97;5076184;27;49056;-74
2022/11/09 00:50:23;;;;;;;;;3.75;3.75;;;;;13.75;80.81;99872.34;5076977;27;45541;-77
2022/11/09 00:52:48;;;;;;;;;3.75;3.75;;;;;13.74;80.67;99887.31;5076592;27;45710;-73
2022/11/09 00:55:14;;;;;;;;;5.00;5.00;;;;;13.67;80.80;99880.75;5075868;27;45504;-73
2022/11/09 00:57:39;;;;;;;;;4.00;4.00;;;;;13.70;81.17;99891.97;5074547;28;45424;-72
2022/11/09 01:00:05;;;;;;;;;4.50;4.50;;;;;13.71;81.10;99896.31;5075904;27;45318;-75
2022/11/09 01:02:30;;;;;;;;;3.00;3.00;;;;;13.70;81.25;99891.97;5074855;28;45415;-75
2022/11/09 01:04:56;;;;;;;;;5.00;4.00;;;;;13.66;81.06;99879.91;5075393;28;47761;-74
2022/11/09 01:07:21;;;;;;;;;4.00;4.00;;;;;13.71;80.77;99900.75;5076184;27;45520;-74
2022/11/09 01:09:47;;;;;;;;;3.75;3.75;;;;;13.67;80.91;99902.75;5076246;27;45329;-74
2022/11/09 01:12:12;;;;;;;;;2.75;2.75;;;;;13.67;81.08;99904.53;5076665;27;45474;-75
2022/11/09 01:14:37;;;;;;;;;3.25;3.25;;;;;13.67;80.97;99915.09;5075455;27;46196;-73
2022/11/09 01:17:03;;;;;;;;;2.00;2.00;;;;;13.65;80.89;99909.06;5074311;28;45280;-74
2022/11/09 01:19:28;;;;;;;;;3.00;3.00;;;;;13.57;80.82;99899.84;5074609;28;45358;-75
2022/11/09 01:21:54;;;;;;;;;2.75;2.75;;;;;13.61;80.79;99910.22;5075752;27;45558;-74
2022/11/09 01:24:19;;;;;;;;;2.75;2.75;;;;;13.59;81.17;99919.09;5075675;27;45326;-74
2022/11/09 01:26:44;;;;;;;;;2.00;2.00;;;;;13.57;81.26;99926.25;5075579;27;45510;-75
2022/11/09 01:29:10;;;;;;;;;4.25;4.25;;;;;13.52;81.10;99920.41;5076085;27;45322;-76
2022/11/09 01:31:35;;;;;;;;;3.50;3.50;;;;;13.48;81.14;99918.09;5075886;27;45259;-74
2022/11/09 01:34:00;;;;;;;;;2.75;2.75;;;;;13.40;81.09;99907.94;5074547;27;52239;-75
2022/11/09 01:36:26;;;;;;;;;2.00;2.00;;;;;13.45;81.16;99940.25;5074947;28;45306;-75
2022/11/09 01:38:51;;;;;;;;;3.75;3.75;;;;;13.43;81.21;99944.78;5076088;27;45323;-74
2022/11/09 01:41:23;;;;;;;;;3.50;3.50;;;;;13.37;81.26;99940.72;5074392;28;45434;-72
2022/11/09 01:44:11;;;;;;;;;3.00;3.00;;;;;13.32;81.33;99949.84;5075872;28;45470;-73
2022/11/09 01:46:51;;;;;;;;;2.00;2.00;;;;;13.27;81.65;99947.50;5074853;27;45303;-73
2022/11/09 01:49:41;;;;;;;;;3.00;3.00;;;;;13.21;81.67;99945.22;5075466;27;45342;-74
2022/11/09 01:52:14;;;;;;;;;2.50;2.50;;;;;13.15;81.90;99946.47;5075170;28;45255;-73
2022/11/09 01:54:44;;;;;;;;;3.00;3.00;;;;;13.12;81.93;99946.63;5074489;28;45548;-74
2022/11/09 01:57:14;;;;;;;;;2.25;2.25;;;;;13.01;82.18;99934.09;5074646;27;46171;-72
2022/11/09 01:59:45;;;;;;;;;2.00;2.00;;;;;13.04;82.32;99952.38;5075161;28;45366;-73
2022/11/09 02:02:11;;;;;;;;;2.75;2.75;;;;;12.98;82.20;99965.94;5075058;28;45313;-72
2022/11/09 02:04:43;;;;;;;;;3.50;3.50;;;;;12.93;82.52;99963.59;5074626;27;45447;-73
2022/11/09 02:07:09;;;;;;;;;2.75;2.75;;;;;12.90;82.38;99971.72;5074745;27;45318;-73
2022/11/09 02:10:00;;;;;;;;;4.00;4.00;;;;;12.90;82.70;99979.63;5074608;27;45218;-74
2022/11/09 02:12:28;;;;;;;;;4.00;4.00;;;;;12.86;82.50;99970.19;5074898;27;45422;-73
2022/11/09 02:14:55;;;;;;;;;5.00;5.00;;;;;12.83;82.72;99971.22;5074238;28;46480;-73
2022/11/09 02:17:21;;;;;;;;;3.25;3.25;;;;;12.79;82.89;99967.06;5074689;28;45417;-73
2022/11/09 02:19:46;;;;;;;;;4.00;4.00;;;;;12.80;82.86;99967.91;5074581;27;45468;-73
2022/11/09 02:22:11;;;;;;;;;2.50;2.50;;;;;12.73;82.85;99958.66;5075024;28;45243;-74
2022/11/09 02:24:37;;;;;;;;;3.00;3.00;;;;;12.73;82.96;99966.59;5074838;28;45426;-73
2022/11/09 02:27:05;;;;;;;;;2.00;2.00;;;;;12.71;83.06;99966.66;5076024;27;45218;-72
2022/11/09 02:29:38;;;;;;;;;2.25;2.25;;;;;12.68;82.88;99959.75;5074473;27;45390;-73
2022/11/09 02:32:08;;;;;;;;;3.00;3.00;;;;;12.68;82.70;99954.47;5074628;28;45500;-73
2022/11/09 02:34:34;;;;;;;;;1.50;1.50;;;;;12.65;82.92;99959.09;5074239;27;45389;-73
2022/11/09 02:36:59;;;;;;;;;2.25;2.25;;;;;12.64;82.47;99957.41;5074464;27;45322;-74
2022/11/09 02:39:26;;;;;;;;;3.00;3.00;;;;;12.60;82.86;99953.25;5074876;27;45318;-73
2022/11/09 02:41:56;;;;;;;;;1.50;1.50;;;;;12.58;82.73;99955.97;5074771;27;45276;-75
2022/11/09 02:44:24;;;;;;;;;1.00;1.00;;;;;12.53;82.77;99952.75;5076152;27;45431;-74
2022/11/09 02:46:49;;;;;;;;;2.00;2.00;;;;;12.51;82.94;99950.22;5078164;27;45256;-74
2022/11/09 02:49:15;;;;;;;;;2.25;2.25;;;;;12.49;82.87;99944.19;5077651;27;45374;-74
2022/11/09 02:51:40;;;;;;;;;2.00;2.00;;;;;12.49;82.63;99961.78;5077959;28;47706;-73
2022/11/09 02:54:05;;;;;;;;;2.50;2.50;;;;;12.40;82.66;99952.63;5077861;27;45360;-73
2022/11/09 02:56:31;;;;;;;;;2.00;2.00;;;;;12.39;82.75;99957.03;5076433;28;45531;-74
2022/11/09 02:58:56;;;;;;;;;2.00;2.00;;;;;12.41;82.63;99959.59;5076409;28;45457;-73
2022/11/09 03:01:21;;;;;;;;;2.25;2.25;;;;;12.39;82.75;99964.13;5078104;27;45455;-73
2022/11/09 03:03:47;;;;;;;;;1.75;1.75;;;;;12.35;82.77;99971.34;5077441;27;45432;-75
2022/11/09 03:06:12;;;;;;;;;1.00;1.00;;;;;12.33;82.03;99982.94;5077479;27;45206;-73
2022/11/09 03:08:37;;;;;;;;;2.00;2.00;;;;;12.27;82.49;99973.56;5077831;27;45295;-75
2022/11/09 03:11:05;;;;;;;;;2.00;2.00;;;;;12.22;82.38;99971.22;5077914;27;45155;-75
2022/11/09 03:13:30;;;;;;;;;1.00;1.00;;;;;12.21;82.37;99977.44;5077237;27;45869;-74
2022/11/09 03:15:55;;;;;;;;;1.00;1.00;;;;;12.20;82.28;99975.72;5077035;27;45469;-72
2022/11/09 03:18:21;;;;;;;;;2.00;2.00;;;;;12.20;82.68;99980.13;5077763;27;45395;-73
2022/11/09 03:20:46;;;;;;;;;0.75;0.75;;;;;12.17;82.53;99983.78;5077565;27;45576;-74
2022/11/09 03:23:11;;;;;;;;;2.00;2.00;;;;;12.11;82.44;99979.72;5077478;27;46267;-75
2022/11/09 03:25:37;;;;;;;;;1.00;1.00;;;;;12.17;82.18;99985.56;5075843;28;45495;-75
2022/11/09 03:28:05;;;;;;;;;1.00;1.00;;;;;12.10;82.17;99980.66;5077404;27;45303;-73
2022/11/09 03:30:31;;;;;;;;;1.00;1.00;;;;;12.11;82.26;99984.13;5077467;27;45405;-73
2022/11/09 03:32:58;;;;;;;;;0.50;0.50;;;;;12.12;82.49;99991.97;5077251;27;45369;-72
2022/11/09 03:35:23;;;;;;;;;0.00;0.00;;;;;12.10;82.08;99985.94;5075955;28;45234;-75
2022/11/09 03:37:48;;;;;;;;;0.50;0.50;;;;;12.05;82.29;99980.06;5076990;27;45438;-74
2022/11/09 03:40:14;;;;;;;;;1.75;1.75;;;;;12.06;81.95;99986.16;5077371;27;45624;-73
2022/11/09 03:42:44;;;;;;;;;0.00;0.00;;;;;12.06;82.46;99992.31;5076976;27;46755;-73
2022/11/09 03:45:10;;;;;;;;;1.00;1.00;;;;;12.03;82.33;99995.13;5077106;28;45445;-73
2022/11/09 03:47:39;;;;;;;;;0.00;0.00;;;;;12.02;82.11;100003.97;5075648;28;45332;-74
2022/11/09 03:50:05;;;;;;;;;0.25;0.25;;;;;12.03;81.90;100005.66;5077201;27;45601;-75
2022/11/09 03:52:30;;;;;;;;;0.00;0.00;;;;;12.02;82.43;100008.38;5076643;28;46149;-73
2022/11/09 03:54:55;;;;;;;;;1.00;1.00;;;;;11.97;82.18;99995.44;5076324;28;57487;-75
2022/11/09 03:57:21;;;;;;;;;0.50;0.00;;;;;11.96;82.47;99996.38;5076248;27;45446;-73
2022/11/09 03:59:46;;;;;;;;;0.75;0.75;;;;;11.96;82.26;100007.75;5076760;28;45588;-74
2022/11/09 04:02:11;;;;;;;;;0.75;0.75;;;;;11.95;82.53;99999.94;5076494;27;45716;-72
2022/11/09 04:04:37;;;;;;;;;0.00;0.00;;;;;11.87;82.16;99999.50;5076627;27;45413;-73
2022/11/09 04:07:02;;;;;;;;;0.25;0.25;;;;;11.87;82.25;99997.72;5077046;27;45346;-75
2022/11/09 04:09:28;;;;;;;;;0.75;0.75;;;;;11.90;82.37;100007.25;5077537;27;45356;-75
2022/11/09 04:11:53;;;;;;;;;0.00;0.00;;;;;11.88;82.41;100006.47;5077208;28;46233;-72
2022/11/09 04:14:18;;;;;;;;;0.25;0.25;;;;;11.81;82.24;100008.59;5077246;27;45286;-74
2022/11/09 04:16:43;;;;;;;;;0.00;0.00;;;;;11.86;82.37;100021.53;5074999;28;45395;-75
2022/11/09 04:19:09;;;;;;;;;0.00;0.00;;;;;11.86;82.79;100026.78;5076857;27;45605;-75
2022/11/09 04:21:34;;;;;;;;;2.00;1.00;;;;;11.84;82.69;100025.09;5076266;27;46302;-74
2022/11/09 04:23:59;;;;;;;;;0.00;0.00;;;;;11.82;82.67;100029.59;5076481;27;45457;-74
2022/11/09 04:26:25;;;;;;;;;0.75;0.75;;;;;11.79;82.55;100023.63;5077075;27;45222;-73
2022/11/09 04:28:50;;;;;;;;;0.75;0.75;;;;;11.80;82.89;100042.00;5076917;27;45232;-74
2022/11/09 04:31:15;;;;;;;;;0.00;0.00;;;;;11.79;82.84;100036.81;5075926;27;53306;-73
2022/11/09 04:33:41;;;;;;;;;0.00;0.00;;;;;11.73;83.00;100038.00;5076319;27;45432;-75
2022/11/09 04:36:06;;;;;;;;;0.00;0.00;;;;;11.75;82.57;100051.06;5076432;27;45257;-74
2022/11/09 04:38:32;;;;;;;;;0.00;0.00;;;;;11.73;82.33;100048.53;5076528;27;45697;-74
2022/11/09 04:41:02;;;;;;;;;0.00;0.00;;;;;11.71;82.98;100050.41;5076324;27;45375;-74
2022/11/09 04:43:28;;;;;;;;;0.00;0.00;;;;;11.71;82.56;100055.69;5076399;27;45586;-74
2022/11/09 04:45:53;;;;;;;;;0.00;0.00;;;;;11.67;83.05;100051.50;5076457;27;45357;-74
2022/11/09 04:48:19;;;;;;;;;0.00;0.00;;;;;11.67;82.75;100060.25;5075853;28;45406;-73
2022/11/09 04:50:44;;;;;;;;;0.00;0.00;;;;;11.60;83.35;100052.72;5074450;28;46927;-75
2022/11/09 04:53:11;;;;;;;;;1.00;1.00;;;;;11.65;83.02;100055.97;5075813;27;45393;-74
2022/11/09 04:55:38;;;;;;;;;1.00;1.00;;;;;11.61;83.52;100059.69;5076032;27;45395;-74
2022/11/09 04:58:04;;;;;;;;;0.25;0.25;;;;;11.61;83.68;100065.84;5075944;27;45652;-73
2022/11/09 05:00:30;;;;;;;;;0.50;0.50;;;;;11.58;83.89;100059.88;5075719;28;46236;-73
2022/11/09 05:02:59;;;;;;;;;1.00;1.00;;;;;11.57;83.80;100063.44;5076013;28;45403;-74
2022/11/09 05:05:24;;;;;;;;;1.00;1.00;;;;;11.54;83.81;100060.03;5076205;27;45337;-74
2022/11/09 05:07:49;;;;;;;;;0.00;0.00;;;;;11.49;83.69;100051.53;5076177;27;45351;-75
2022/11/09 05:10:15;;;;;;;;;1.00;1.00;;;;;11.53;83.95;100063.59;5076280;27;45319;-75
2022/11/09 05:12:40;;;;;;;;;1.00;1.00;;;;;11.49;84.03;100053.31;5076004;27;45207;-74
2022/11/09 05:15:06;;;;;;;;;1.00;1.00;;;;;11.50;83.70;100063.75;5075707;28;45566;-77
2022/11/09 05:17:32;;;;;;;;;3.00;3.00;;;;;11.45;84.35;100044.72;5076366;28;45565;-73
2022/11/09 05:19:57;;;;;;;;;0.50;0.50;;;;;11.50;84.51;100049.75;5074705;28;46352;-73
2022/11/09 05:25:06;;;;;;;;;4.00;3.00;;;;;11.48;84.17;100062.97;5076063;28;45324;-74
2022/11/09 05:27:32;;;;;;;;;0.00;0.00;;;;;11.42;84.18;100050.13;5074418;28;45414;-74
2022/11/09 05:29:57;;;;;;;;;1.25;1.00;;;;;11.47;84.03;100058.66;5075499;27;57489;-73
2022/11/09 05:32:22;;;;;;;;;2.00;2.00;;;;;11.50;84.72;100058.50;5074404;28;45311;-74
2022/11/09 05:34:47;;;;;;;;;2.00;2.00;;;;;11.49;84.47;100056.78;5076004;27;45350;-74
2022/11/09 05:37:13;;;;;;;;;1.00;1.00;;;;;11.52;84.37;100071.59;5075666;27;45314;-75
2022/11/09 05:39:38;;;;;;;;;1.50;1.50;;;;;11.48;84.23;100060.34;5075038;27;45677;-73
2022/11/09 05:42:04;;;;;;;;;1.00;1.00;;;;;11.48;84.21;100064.78;5074827;27;45311;-72
2022/11/09 05:44:29;;;;;;;;;1.50;1.50;;;;;11.50;84.63;100062.91;5074211;28;45268;-74
2022/11/09 05:46:54;;;;;;;;;1.50;1.50;;;;;11.51;84.54;100069.88;5073806;28;45707;-74
2022/11/09 05:49:20;;;;;;;;;2.75;2.75;;;;;11.49;85.45;100062.06;5073317;28;48252;-73
2022/11/09 05:51:45;;;;;;;;;2.00;2.00;;;;;11.53;85.14;100060.97;5072922;27;53453;-73
2022/11/09 05:54:10;;;;;;;;;1.25;1.25;;;;;11.52;85.64;100058.41;5075284;27;45427;-73
2022/11/09 05:56:36;;;;;;;;;2.00;2.00;;;;;11.62;85.26;100071.94;5074137;28;45345;-76
2022/11/09 05:59:01;;;;;;;;;1.75;1.75;;;;;11.63;85.64;100079.78;5074125;28;46942;-73
2022/11/09 06:01:26;;;;;;;;;2.00;2.00;;;;;11.64;85.25;100086.75;5076147;27;45388;-72
2022/11/09 06:03:55;;;;;;;;;3.75;3.00;;;;;11.63;85.30;100084.19;5075652;27;45353;-73
2022/11/09 06:06:20;;;;;;;;;3.75;3.75;;;;;11.63;85.18;100081.53;5076064;27;45227;-74
2022/11/09 06:08:45;;;;;;;;;2.00;2.00;;;;;11.67;85.07;100094.50;5075706;27;45272;-73
2022/11/09 06:11:12;;;;;;;;;4.25;4.00;;;;;11.67;85.18;100083.13;5074779;27;45311;-72
2022/11/09 06:13:37;;;;;;;;;1.75;1.75;;;;;11.67;85.20;100089.22;5074897;27;45342;-73
2022/11/09 06:16:04;;;;;;;;;3.25;3.25;;;;;11.71;85.68;100089.94;5073855;28;45537;-73
2022/11/09 06:18:31;;;;;;;;;4.00;3.25;;;;;11.62;85.53;100078.06;5074835;27;46335;-74
2022/11/09 06:20:59;;;;;;;;;5.00;5.00;;;;;11.68;85.96;100087.47;5073390;28;45515;-73
2022/11/09 06:23:25;;;;;;;;;3.00;3.00;;;;;11.72;86.05;100093.41;5073425;28;45248;-74
2022/11/09 06:26:11;;;;;;;;;3.50;3.50;;;;;11.67;85.94;100093.66;5074773;27;45448;-73
2022/11/09 06:28:38;;;;;;;;;8.00;8.00;;;;;11.72;86.30;100098.66;5074310;27;46259;-74
2022/11/09 06:31:05;;;;;;;;;6.75;6.75;;;;;11.72;86.28;100094.25;5074744;27;45242;-74
2022/11/09 06:33:32;;;;;;;;;3.75;3.75;;;;;11.74;86.23;100110.84;5074642;27;45279;-74
2022/11/09 06:35:58;;;;;;;;;5.00;5.00;;;;;11.68;86.46;100098.81;5075211;27;45366;-74
2022/11/09 06:38:27;;;;;;;;;3.50;3.50;;;;;11.72;86.78;100107.44;5073816;27;46531;-73
2022/11/09 06:40:58;;;;;;;;;6.25;5.25;;;;;11.71;86.29;100113.63;5074255;27;45230;-74
2022/11/09 06:43:24;;;;;;;;;5.00;5.00;;;;;11.70;86.50;100111.94;5074096;27;45400;-74
2022/11/09 06:45:50;;;;;;;;;3.75;3.75;;;;;11.68;86.67;100103.25;5074299;27;45448;-73
2022/11/09 06:48:16;;;;;;;;;4.25;4.25;;;;;11.71;87.05;100118.03;5073914;27;46066;-75
2022/11/09 06:50:41;;;;;;;;;6.50;6.50;;;;;11.70;87.21;100122.47;5074226;28;45264;-76
2022/11/09 06:53:09;;;;;;;;;4.00;4.00;;;;;11.73;87.03;100132.84;5075051;27;45220;-73
2022/11/09 06:55:36;;;;;;;;;3.25;3.25;;;;;11.71;87.02;100126.81;5074486;27;45347;-74
2022/11/09 06:58:09;;;;;;;;;5.75;5.25;;;;;11.72;87.12;100141.69;5074667;27;45553;-75
2022/11/09 07:00:34;;;;;;;;;2.00;2.00;;;;;11.69;86.99;100134.78;5074781;27;45357;-74
2022/11/09 07:03:00;;;;;;;;;3.00;3.00;;;;;11.65;87.47;100121.84;5073897;28;45549;-76
2022/11/09 07:05:26;;;;;;;;;5.25;5.00;;;;;11.73;87.30;100138.13;5074468;27;45323;-75
2022/11/09 07:07:51;;;;;;;;;4.50;4.50;;;;;11.75;87.36;100140.66;5073610;27;46215;-73
2022/11/09 07:10:17;;;;;;;;;4.25;4.25;;;;;11.74;87.66;100144.22;5073848;27;45817;-74
2022/11/09 07:12:42;;;;;;;;;6.00;6.00;;;;;11.76;87.58;100148.50;5073637;27;45350;-72
2022/11/09 07:15:08;;;;;;;;;9.00;7.50;;;;;11.77;87.80;100151.97;5073816;27;45406;-73
2022/11/09 07:17:35;;;;;;;;;7.00;7.00;;;;;11.81;87.59;100158.78;5073796;27;45366;-73
2022/11/09 07:20:01;;;;;;;;;4.75;4.75;;;;;11.81;87.82;100164.91;5073336;28;45440;-74
2022/11/09 07:22:27;;;;;;;;;6.75;6.75;;;;;11.78;87.78;100162.44;5069489;28;45582;-74
2022/11/09 07:24:52;;;;;;;;;6.25;6.25;;;;;11.82;88.08;100161.34;5067844;28;45685;-74
2022/11/09 07:27:18;;;;;;;;;4.50;4.50;;;;;11.87;87.81;100171.63;5072865;27;45458;-73
2022/11/09 07:29:43;;;;;;;;;5.75;5.75;;;;;11.89;87.88;100179.47;5071616;27;45246;-71
2022/11/09 07:32:08;;;;;;;;;5.75;5.75;;;;;11.89;88.00;100180.31;5069848;28;46789;-73
2022/11/09 07:34:34;;;;;;;;;5.50;5.50;;;;;11.93;88.24;100175.75;5066935;27;45643;-73
2022/11/09 07:36:59;;;;;;;;;6.00;6.00;;;;;11.94;87.86;100186.19;5075343;27;45731;-78
2022/11/09 07:39:24;;;;;;;;;7.00;7.00;;;;;11.99;87.91;100184.16;5084844;27;46080;-76
2022/11/09 07:41:50;;;;;;;;;9.50;8.75;;;;;12.01;88.14;100176.22;5087461;27;45500;-76
2022/11/09 07:44:17;;;;;;;;;6.25;6.25;;;;;12.06;87.77;100171.56;5100476;27;45283;-76
2022/11/09 07:46:47;;;;;;;;;4.50;4.50;;;;;12.12;87.43;100183.56;5058651;27;47205;-77
2022/11/09 07:49:14;;;;;;;;;5.50;5.50;;;;;12.10;87.57;100175.75;5058079;28;45315;-73
2022/11/09 07:51:40;;;;;;;;;5.75;5.75;;;;;12.07;87.66;100175.91;5066353;27;45316;-76
2022/11/09 07:54:06;;;;;;;;;6.50;6.50;;;;;12.12;87.81;100179.16;5088521;27;44951;-81
2022/11/09 07:56:31;;;;;;;;;6.25;6.25;;;;;12.09;87.38;100171.41;5069479;27;47629;-76
2022/11/09 07:58:56;;;;;;;;;9.75;9.75;;;;;12.17;87.41;100183.31;5072475;27;45545;-75
2022/11/09 08:01:22;;;;;;;;;29.25;28.00;;;;;12.23;87.16;100193.53;5076085;27;45429;-77
2022/11/09 08:03:47;;;;;;;;;5.75;5.75;;;;;12.25;87.23;100204.88;5076967;27;45394;-75
2022/11/09 08:06:13;;;;;;;;;5.25;5.25;;;;;12.24;87.18;100206.66;5062792;27;50203;-77
2022/11/09 08:08:38;;;;;;;;;5.75;5.75;;;;;12.23;87.14;100194.41;5065485;27;45448;-79
2022/11/09 08:11:04;;;;;;;;;7.25;7.25;;;;;12.23;86.93;100199.69;5075370;28;45333;-77
2022/11/09 08:13:29;;;;;;;;;8.75;8.00;;;;;12.34;86.71;100212.28;5065891;27;45878;-78
2022/11/09 08:15:55;;;;;;;;;5.50;5.50;;;;;12.32;87.04;100197.50;5056286;27;46203;-79
2022/11/09 08:18:21;;;;;;;;;5.25;5.25;;;;;12.42;86.81;100218.00;5071224;27;45287;-79
2022/11/09 08:20:47;;;;;;;;;6.00;5.75;;;;;12.44;86.67;100206.50;5065783;27;45227;-76
2022/11/09 08:23:14;;;;;;;;;6.25;5.50;;;;;12.47;86.58;100207.22;5060376;27;45415;-78
2022/11/09 08:25:40;;;;;;;;;6.75;6.75;;;;;12.36;86.61;100188.47;5076559;27;46359;-73
2022/11/09 08:28:06;;;;;;;;;5.75;5.75;;;;;12.44;86.91;100202.09;5057938;27;45509;-76
2022/11/09 08:30:32;;;;;;;;;7.00;7.00;;;;;12.46;86.83;100204.63;5075415;27;45553;-74
2022/11/09 08:32:59;;;;;;;;;5.25;5.25;;;;;12.46;86.63;100202.00;5068643;27;45523;-75
2022/11/09 08:35:25;;;;;;;;;5.50;5.00;;;;;12.45;86.53;100217.00;5055543;27;45993;-78
2022/11/09 08:37:52;;;;;;;;;6.00;6.00;;;;;12.47;86.56;100223.03;5055655;28;45353;-74
2022/11/09 08:40:21;;;;;;;;;7.00;7.00;;;;;12.49;86.52;100220.31;5055775;28;45312;-75
2022/11/09 08:42:46;;;;;;;;;14.75;13.75;;;;;12.50;86.53;100225.50;5055269;28;45564;-75
2022/11/09 08:45:12;;;;;;;;;7.75;7.75;;;;;12.49;86.70;100223.81;5055547;28;45415;-77
2022/11/09 08:47:39;;;;;;;;;5.00;5.00;;;;;12.49;86.65;100221.16;5055876;28;45335;-77
2022/11/09 08:50:05;;;;;;;;;11.25;10.50;;;;;12.53;86.37;100232.38;5055410;28;45429;-73
2022/11/09 08:52:31;;;;;;;;;11.25;11.25;;;;;12.56;86.25;100224.31;5053898;28;45345;-74
2022/11/09 08:54:57;;;;;;;;;5.25;5.25;;;;;12.62;86.31;100236.31;5055016;28;45355;-73
2022/11/09 08:57:22;;;;;;;;;7.00;7.00;;;;;12.63;86.09;100230.13;5055143;28;45223;-74
2022/11/09 08:59:48;;;;;;;;;5.00;5.00;;;;;12.56;85.85;100211.13;5055816;28;45332;-74
2022/11/09 09:02:14;;;;;;;;;6.25;6.25;;;;;12.65;86.07;100234.34;5055591;28;45509;-73
2022/11/09 09:04:39;;;;;;;;;8.00;8.00;;;;;12.73;85.81;100243.69;5055650;28;45365;-75
2022/11/09 09:07:05;;;;;;;;;4.75;4.75;;;;;12.80;85.25;100252.97;5055694;28;45391;-73
2022/11/09 09:09:31;;;;;;;;;5.50;5.50;;;;;12.85;85.22;100248.28;5055684;28;45356;-74
2022/11/09 09:11:56;;;;;;;;;5.50;5.50;;;;;12.91;84.90;100245.28;5054892;28;45538;-73
2022/11/09 09:14:21;;;;;;;;;5.50;5.50;;;;;12.98;84.39;100240.50;5055531;28;45942;-77
2022/11/09 09:16:47;;;;;;;;;3.00;3.00;;;;;13.08;84.10;100251.41;5055134;28;45448;-77
2022/11/09 09:19:12;;;;;;;;;4.00;4.00;;;;;13.04;83.60;100234.88;5055867;28;45262;-79
2022/11/09 09:21:38;;;;;;;;;4.50;4.50;;;;;13.20;83.27;100253.38;5055668;28;45677;-78
2022/11/09 09:24:03;;;;;;;;;4.50;4.50;;;;;13.28;82.91;100264.34;5054986;28;45463;-75
2022/11/09 09:26:28;;;;;;;;;4.25;4.25;;;;;13.34;82.55;100271.09;5055055;28;45387;-76
2022/11/09 09:28:54;;;;;;;;;4.75;4.75;;;;;13.40;82.33;100269.88;5055956;28;45362;-74
2022/11/09 09:31:20;;;;;;;;;4.50;3.25;;;;;13.48;82.21;100269.47;5058437;28;45304;-72
2022/11/09 09:33:46;;;;;;;;;5.00;5.00;;;;;13.52;81.64;100276.28;5055444;28;45241;-75
2022/11/09 09:36:18;;;;;;;;;3.50;3.50;;;;;13.60;80.90;100284.63;5055047;28;45368;-71
2022/11/09 09:38:43;;;;;;;;;5.00;5.00;;;;;13.59;80.63;100275.81;5055425;28;45415;-76
2022/11/09 09:41:20;;;;;;;;;1.50;1.50;;;;;13.68;80.54;100295.59;5055146;28;45564;-74
2022/11/09 09:43:48;;;;;;;;;6.75;6.75;;;;;13.64;79.59;100274.72;5054917;28;45544;-74
2022/11/09 09:46:17;;;;;;;;;4.00;4.00;;;;;13.80;79.24;100296.69;5054918;28;45228;-75
2022/11/09 09:48:50;;;;;;;;;3.00;3.00;;;;;13.71;78.83;100273.41;5055208;28;45382;-74
2022/11/09 09:51:36;;;;;;;;;5.25;5.25;;;;;13.86;78.75;100298.13;5055259;28;45462;-73
2022/11/09 09:54:10;;;;;;;;;6.75;6.75;;;;;13.97;78.85;100298.31;5068897;28;48309;-74
2022/11/09 09:56:42;;;;;;;;;6.25;6.25;;;;;14.05;78.49;100299.66;5054655;28;45377;-74
2022/11/09 09:59:08;;;;;;;;;5.25;5.25;;;;;14.13;78.08;100305.34;5054668;28;45317;-77
2022/11/09 10:01:39;;;;;;;;;3.00;3.00;;;;;14.19;77.46;100304.97;5054986;28;45583;-75
2022/11/09 10:04:23;;;;;;;;;3.00;3.00;;;;;14.25;77.04;100315.19;5054571;28;46262;-73
2022/11/09 10:07:01;;;;;;;;;3.75;3.75;;;;;14.29;76.93;100313.22;5054615;28;45390;-76
2022/11/09 10:09:29;;;;;;;;;3.50;3.50;;;;;14.37;76.09;100333.94;5054540;28;45263;-75
2022/11/09 10:12:01;;;;;;;;;4.00;4.00;;;;;14.40;75.55;100339.91;5054596;28;45563;-74
2022/11/09 10:14:39;;;;;;;;;5.25;5.25;;;;;14.46;75.60;100336.88;5069830;28;48101;-72
2022/11/09 10:17:18;;;;;;;;;4.00;4.00;;;;;14.56;74.70;100346.91;5054022;28;45426;-76
2022/11/09 10:20:10;;;;;;;;;3.00;3.00;;;;;14.61;74.51;100348.34;5053400;28;45346;-75
2022/11/09 10:22:44;;;;;;;;;3.50;3.00;;;;;14.64;74.03;100352.56;5051629;28;45490;-76
2022/11/09 10:25:24;;;;;;;;;2.50;2.50;;;;;14.70;73.67;100351.41;5086661;27;46302;-74
2022/11/09 10:27:55;;;;;;;;;3.25;2.75;;;;;14.69;73.16;100355.78;5054161;28;45293;-73
2022/11/09 10:30:22;;;;;;;;;2.00;2.00;;;;;14.76;73.15;100351.03;5054661;28;45348;-74
2022/11/09 10:32:50;;;;;;;;;3.00;2.25;;;;;14.82;73.09;100361.22;5054628;28;45610;-76
2022/11/09 10:35:22;;;;;;;;;5.00;4.75;;;;;14.93;73.02;100365.88;5054312;28;46619;-75
2022/11/09 10:37:53;;;;;;;;;6.00;6.00;;;;;15.02;72.34;100356.50;5053005;28;45652;-75
2022/11/09 10:40:41;;;;;;;;;3.00;3.00;;;;;15.10;71.64;100369.28;5054514;28;45363;-75
2022/11/09 10:43:12;;;;;;;;;3.50;3.50;;;;;15.17;72.09;100371.41;5054099;28;45505;-75
2022/11/09 10:45:42;;;;;;;;;6.75;6.75;;;;;15.24;71.28;100376.34;5053631;28;45353;-73
2022/11/09 10:48:10;;;;;;;;;4.00;4.00;;;;;15.27;70.68;100374.34;5053897;28;45362;-73
2022/11/09 10:50:52;;;;;;;;;4.25;4.25;;;;;15.32;70.27;100372.25;5054101;28;45443;-73
2022/11/09 10:53:26;;;;;;;;;4.50;4.00;;;;;15.33;70.17;100375.75;5054242;28;45354;-75
2022/11/09 10:56:11;;;;;;;;;6.00;6.00;;;;;15.38;69.66;100376.34;5053353;28;46584;-75
2022/11/09 10:58:44;;;;;;;;;5.00;3.50;;;;;15.40;69.24;100376.22;5053680;28;45376;-74
2022/11/09 11:01:18;;;;;;;;;2.75;2.75;;;;;15.46;69.22;100381.13;5086072;27;45237;-75
2022/11/09 11:03:47;;;;;;;;;3.50;3.50;;;;;15.54;69.14;100392.09;5069329;28;45332;-77
2022/11/09 11:06:21;;;;;;;;;4.75;4.75;;;;;15.61;68.72;100381.94;5056380;28;45395;-74
2022/11/09 11:09:07;;;;;;;;;6.25;5.50;;;;;15.72;68.23;100386.53;5057249;28;45517;-77
2022/11/09 11:11:35;;;;;;;;;3.50;3.50;;;;;15.80;67.97;100389.53;5056351;28;45357;-74
2022/11/09 11:14:18;;;;;;;;;6.00;6.00;;;;;15.86;67.72;100390.97;5057164;28;45208;-76
2022/11/09 11:16:45;;;;;;;;;4.50;4.50;;;;;15.87;67.71;100382.06;5058025;28;45417;-75
2022/11/09 11:19:28;;;;;;;;;8.50;8.50;;;;;15.89;67.18;100394.28;5056796;28;45235;-75
2022/11/09 11:22:18;;;;;;;;;5.25;5.25;;;;;15.87;66.86;100387.34;5072879;28;45522;-76
2022/11/09 11:25:01;;;;;;;;;5.75;5.75;;;;;15.81;66.88;100379.81;5057072;28;45418;-77
2022/11/09 11:27:49;;;;;;;;;5.25;4.25;;;;;15.82;66.67;100386.81;5056277;28;46078;-74
2022/11/09 11:30:18;;;;;;;;;5.75;5.75;;;;;15.79;65.87;100382.53;5054823;28;45255;-78
2022/11/09 11:32:44;;;;;;;;;2.50;2.50;;;;;15.75;65.55;100381.03;5056736;28;45396;-74